sensor_id;sensor_type;location;lat;lon;timestamp;temperature;humidity
7206;DHT22;3644;53.480;10.004;2024-01-30T00:01:10;6.70;99.90
7206;DHT22;3644;53.480;10.004;2024-01-30T00:03:36;6.60;99.90
7206;DHT22;3644;53.480;10.004;2024-01-30T00:06:03;6.60;99.90
7206;DHT22;3644;53.480;10.004;2024-01-30T00:08:28;6.60;99.90
7206;DHT22;3644;53.480;10.004;2024-01-30T00:10:54;6.60;99.90
7206;DHT22;3644;53.480;10.004;2024-01-30T00:13:20;6.50;99.90
7206;DHT22;3644;53.480;10.004;2024-01-30T00:15:45;6.50;99.90
7206;DHT22;3644;53.480;10.004;2024-01-30T00:18:11;6.60;99.90
7206;DHT22;3644;53.480;10.004;2024-01-30T00:20:36;6.80;99.90
7206;DHT22;3644;53.480;10.004;2024-01-30T00:23:02;6.70;99.90
7206;DHT22;3644;53.480;10.004;2024-01-30T00:25:28;6.60;99.90
7206;DHT22;3644;53.480;10.004;2024-01-30T00:27:53;6.50;99.90
7206;DHT22;3644;53.480;10.004;2024-01-30T00:30:20;6.60;99.90
7206;DHT22;3644;53.480;10.004;2024-01-30T00:32:45;6.60;99.90
7206;DHT22;3644;53.480;10.004;2024-01-30T00:35:11;6.60;99.90
7206;DHT22;3644;53.480;10.004;2024-01-30T00:37:37;6.60;99.90
7206;DHT22;3644;53.480;10.004;2024-01-30T00:40:02;6.50;99.90
7206;DHT22;3644;53.480;10.004;2024-01-30T00:42:29;6.50;99.90
7206;DHT22;3644;53.480;10.004;2024-01-30T00:44:54;6.50;99.90
7206;DHT22;3644;53.480;10.004;2024-01-30T00:47:20;6.30;99.90
7206;DHT22;3644;53.480;10.004;2024-01-30T00:49:45;6.30;99.90
7206;DHT22;3644;53.480;10.004;2024-01-30T00:52:11;6.20;99.90
7206;DHT22;3644;53.480;10.004;2024-01-30T00:54:37;6.30;99.90
7206;DHT22;3644;53.480;10.004;2024-01-30T00:57:03;6.30;99.90
7206;DHT22;3644;53.480;10.004;2024-01-30T00:59:28;6.20;99.90
7206;DHT22;3644;53.480;10.004;2024-01-30T01:01:54;6.30;99.90
7206;DHT22;3644;53.480;10.004;2024-01-30T01:04:19;6.40;99.90
7206;DHT22;3644;53.480;10.004;2024-01-30T01:06:46;6.40;99.90
7206;DHT22;3644;53.480;10.004;2024-01-30T01:09:12;6.50;99.90
7206;DHT22;3644;53.480;10.004;2024-01-30T01:11:38;6.20;99.90
7206;DHT22;3644;53.480;10.004;2024-01-30T01:14:04;6.30;99.90
7206;DHT22;3644;53.480;10.004;2024-01-30T01:16:29;6.30;99.90
7206;DHT22;3644;53.480;10.004;2024-01-30T01:18:55;6.30;99.90
7206;DHT22;3644;53.480;10.004;2024-01-30T01:21:21;6.10;99.90
7206;DHT22;3644;53.480;10.004;2024-01-30T01:23:46;6.10;99.90
7206;DHT22;3644;53.480;10.004;2024-01-30T01:26:12;6.20;99.90
7206;DHT22;3644;53.480;10.004;2024-01-30T01:28:40;6.20;99.90
7206;DHT22;3644;53.480;10.004;2024-01-30T01:31:06;6.20;99.90
7206;DHT22;3644;53.480;10.004;2024-01-30T01:33:32;6.10;99.90
7206;DHT22;3644;53.480;10.004;2024-01-30T01:35:58;6.10;99.90
7206;DHT22;3644;53.480;10.004;2024-01-30T01:38:24;6.10;99.90
7206;DHT22;3644;53.480;10.004;2024-01-30T01:40:49;6.20;99.90
7206;DHT22;3644;53.480;10.004;2024-01-30T01:43:16;6.10;99.90
7206;DHT22;3644;53.480;10.004;2024-01-30T01:45:42;6.20;99.90
7206;DHT22;3644;53.480;10.004;2024-01-30T01:48:08;6.10;99.90
7206;DHT22;3644;53.480;10.004;2024-01-30T01:50:35;6.20;99.90
7206;DHT22;3644;53.480;10.004;2024-01-30T01:53:01;6.30;99.90
7206;DHT22;3644;53.480;10.004;2024-01-30T01:55:29;6.20;99.90
7206;DHT22;3644;53.480;10.004;2024-01-30T01:57:55;6.30;99.90
7206;DHT22;3644;53.480;10.004;2024-01-30T02:00:21;6.30;99.90
7206;DHT22;3644;53.480;10.004;2024-01-30T02:02:47;6.30;99.90
7206;DHT22;3644;53.480;10.004;2024-01-30T02:05:13;6.20;99.90
7206;DHT22;3644;53.480;10.004;2024-01-30T02:07:39;6.10;99.90
7206;DHT22;3644;53.480;10.004;2024-01-30T02:10:07;6.00;99.90
7206;DHT22;3644;53.480;10.004;2024-01-30T02:12:32;6.00;99.90
7206;DHT22;3644;53.480;10.004;2024-01-30T02:14:58;6.20;99.90
7206;DHT22;3644;53.480;10.004;2024-01-30T02:17:24;6.20;99.90
7206;DHT22;3644;53.480;10.004;2024-01-30T02:19:49;6.40;99.90
7206;DHT22;3644;53.480;10.004;2024-01-30T02:22:15;6.30;99.90
7206;DHT22;3644;53.480;10.004;2024-01-30T02:24:41;6.20;99.90
7206;DHT22;3644;53.480;10.004;2024-01-30T02:27:06;6.20;99.90
7206;DHT22;3644;53.480;10.004;2024-01-30T02:29:32;6.00;99.90
7206;DHT22;3644;53.480;10.004;2024-01-30T02:31:57;6.10;99.90
7206;DHT22;3644;53.480;10.004;2024-01-30T02:34:24;6.30;99.90
7206;DHT22;3644;53.480;10.004;2024-01-30T02:36:50;6.20;99.90
7206;DHT22;3644;53.480;10.004;2024-01-30T02:39:15;6.10;99.90
7206;DHT22;3644;53.480;10.004;2024-01-30T02:41:41;6.20;99.90
7206;DHT22;3644;53.480;10.004;2024-01-30T02:44:06;6.10;99.90
7206;DHT22;3644;53.480;10.004;2024-01-30T02:46:32;6.20;99.90
7206;DHT22;3644;53.480;10.004;2024-01-30T02:48:57;6.10;99.90
7206;DHT22;3644;53.480;10.004;2024-01-30T02:51:23;6.00;99.90
7206;DHT22;3644;53.480;10.004;2024-01-30T02:53:48;6.10;99.90
7206;DHT22;3644;53.480;10.004;2024-01-30T02:56:14;6.30;99.90
7206;DHT22;3644;53.480;10.004;2024-01-30T02:58:40;6.20;99.90
7206;DHT22;3644;53.480;10.004;2024-01-30T03:01:06;6.20;99.90
7206;DHT22;3644;53.480;10.004;2024-01-30T03:03:32;6.30;99.90
7206;DHT22;3644;53.480;10.004;2024-01-30T03:05:57;6.30;99.90
7206;DHT22;3644;53.480;10.004;2024-01-30T03:08:23;6.20;99.90
7206;DHT22;3644;53.480;10.004;2024-01-30T03:10:48;6.30;99.90
7206;DHT22;3644;53.480;10.004;2024-01-30T03:13:14;6.20;99.90
7206;DHT22;3644;53.480;10.004;2024-01-30T03:15:40;6.20;99.90
7206;DHT22;3644;53.480;10.004;2024-01-30T03:18:05;6.20;99.90
7206;DHT22;3644;53.480;10.004;2024-01-30T03:20:31;6.30;99.90
7206;DHT22;3644;53.480;10.004;2024-01-30T03:22:57;6.30;99.90
7206;DHT22;3644;53.480;10.004;2024-01-30T03:25:22;6.20;99.90
7206;DHT22;3644;53.480;10.004;2024-01-30T03:27:48;6.20;99.90
7206;DHT22;3644;53.480;10.004;2024-01-30T03:30:14;6.30;99.90
7206;DHT22;3644;53.480;10.004;2024-01-30T03:32:39;6.50;99.90
7206;DHT22;3644;53.480;10.004;2024-01-30T03:35:05;6.40;99.90
7206;DHT22;3644;53.480;10.004;2024-01-30T03:37:31;6.30;99.90
7206;DHT22;3644;53.480;10.004;2024-01-30T03:39:56;6.30;99.90
7206;DHT22;3644;53.480;10.004;2024-01-30T03:42:22;6.20;99.90
7206;DHT22;3644;53.480;10.004;2024-01-30T03:44:48;6.10;99.90
7206;DHT22;3644;53.480;10.004;2024-01-30T03:47:13;6.20;99.90
7206;DHT22;3644;53.480;10.004;2024-01-30T03:49:39;6.10;99.90
7206;DHT22;3644;53.480;10.004;2024-01-30T03:52:05;6.20;99.90
7206;DHT22;3644;53.480;10.004;2024-01-30T03:54:30;5.90;99.90
7206;DHT22;3644;53.480;10.004;2024-01-30T03:56:56;5.90;99.90
7206;DHT22;3644;53.480;10.004;2024-01-30T03:59:21;6.00;99.90
7206;DHT22;3644;53.480;10.004;2024-01-30T04:01:50;5.90;99.90
7206;DHT22;3644;53.480;10.004;2024-01-30T04:04:17;5.90;99.90
7206;DHT22;3644;53.480;10.004;2024-01-30T04:06:44;5.90;99.90
7206;DHT22;3644;53.480;10.004;2024-01-30T04:09:09;6.10;99.90
7206;DHT22;3644;53.480;10.004;2024-01-30T04:11:36;6.00;99.90
7206;DHT22;3644;53.480;10.004;2024-01-30T04:14:02;6.00;99.90
7206;DHT22;3644;53.480;10.004;2024-01-30T04:16:27;6.00;99.90
7206;DHT22;3644;53.480;10.004;2024-01-30T04:18:53;5.90;99.90
7206;DHT22;3644;53.480;10.004;2024-01-30T04:21:20;6.00;99.90
7206;DHT22;3644;53.480;10.004;2024-01-30T04:23:45;5.90;99.90
7206;DHT22;3644;53.480;10.004;2024-01-30T04:26:11;5.90;99.90
7206;DHT22;3644;53.480;10.004;2024-01-30T04:28:36;5.90;99.90
7206;DHT22;3644;53.480;10.004;2024-01-30T04:31:03;5.90;99.90
7206;DHT22;3644;53.480;10.004;2024-01-30T04:33:28;5.90;99.90
7206;DHT22;3644;53.480;10.004;2024-01-30T04:35:54;5.90;99.90
7206;DHT22;3644;53.480;10.004;2024-01-30T04:38:19;5.90;99.90
7206;DHT22;3644;53.480;10.004;2024-01-30T04:40:45;5.90;99.90
7206;DHT22;3644;53.480;10.004;2024-01-30T04:43:10;5.90;99.90
7206;DHT22;3644;53.480;10.004;2024-01-30T04:45:36;5.90;99.90
7206;DHT22;3644;53.480;10.004;2024-01-30T04:48:01;5.60;99.90
7206;DHT22;3644;53.480;10.004;2024-01-30T04:50:27;5.60;99.90
7206;DHT22;3644;53.480;10.004;2024-01-30T04:52:53;5.60;99.90
7206;DHT22;3644;53.480;10.004;2024-01-30T04:55:18;5.80;99.90
7206;DHT22;3644;53.480;10.004;2024-01-30T04:57:44;5.60;99.90
7206;DHT22;3644;53.480;10.004;2024-01-30T05:00:10;5.50;99.90
7206;DHT22;3644;53.480;10.004;2024-01-30T05:02:35;5.50;99.90
7206;DHT22;3644;53.480;10.004;2024-01-30T05:05:01;5.60;99.90
7206;DHT22;3644;53.480;10.004;2024-01-30T05:07:26;5.70;99.90
7206;DHT22;3644;53.480;10.004;2024-01-30T05:09:52;5.80;99.90
7206;DHT22;3644;53.480;10.004;2024-01-30T05:12:19;5.60;99.90
7206;DHT22;3644;53.480;10.004;2024-01-30T05:14:44;5.60;99.90
7206;DHT22;3644;53.480;10.004;2024-01-30T05:17:10;5.70;99.90
7206;DHT22;3644;53.480;10.004;2024-01-30T05:19:38;5.60;99.90
7206;DHT22;3644;53.480;10.004;2024-01-30T05:22:03;5.60;99.90
7206;DHT22;3644;53.480;10.004;2024-01-30T05:24:29;5.50;99.90
7206;DHT22;3644;53.480;10.004;2024-01-30T05:26:54;5.70;99.90
7206;DHT22;3644;53.480;10.004;2024-01-30T05:29:20;5.60;99.90
7206;DHT22;3644;53.480;10.004;2024-01-30T05:31:45;5.60;99.90
7206;DHT22;3644;53.480;10.004;2024-01-30T05:34:11;5.70;99.90
7206;DHT22;3644;53.480;10.004;2024-01-30T05:36:36;5.70;99.90
7206;DHT22;3644;53.480;10.004;2024-01-30T05:39:02;5.50;99.90
7206;DHT22;3644;53.480;10.004;2024-01-30T05:41:27;5.60;99.90
7206;DHT22;3644;53.480;10.004;2024-01-30T05:43:53;5.40;99.90
7206;DHT22;3644;53.480;10.004;2024-01-30T05:46:18;5.40;99.90
7206;DHT22;3644;53.480;10.004;2024-01-30T05:48:44;5.60;99.90
7206;DHT22;3644;53.480;10.004;2024-01-30T05:51:09;5.60;99.90
7206;DHT22;3644;53.480;10.004;2024-01-30T05:53:35;5.40;99.90
7206;DHT22;3644;53.480;10.004;2024-01-30T05:56:04;5.50;99.90
7206;DHT22;3644;53.480;10.004;2024-01-30T05:58:29;5.40;99.90
7206;DHT22;3644;53.480;10.004;2024-01-30T06:00:56;5.40;99.90
7206;DHT22;3644;53.480;10.004;2024-01-30T06:03:22;5.30;99.90
7206;DHT22;3644;53.480;10.004;2024-01-30T06:05:48;5.30;99.90
7206;DHT22;3644;53.480;10.004;2024-01-30T06:08:13;5.40;99.90
7206;DHT22;3644;53.480;10.004;2024-01-30T06:10:39;5.30;99.90
7206;DHT22;3644;53.480;10.004;2024-01-30T06:13:05;5.30;99.90
7206;DHT22;3644;53.480;10.004;2024-01-30T06:15:31;5.30;99.90
7206;DHT22;3644;53.480;10.004;2024-01-30T06:17:58;5.30;99.90
7206;DHT22;3644;53.480;10.004;2024-01-30T06:20:23;5.30;99.90
7206;DHT22;3644;53.480;10.004;2024-01-30T06:22:49;5.50;99.90
7206;DHT22;3644;53.480;10.004;2024-01-30T06:25:14;5.60;99.90
7206;DHT22;3644;53.480;10.004;2024-01-30T06:27:41;5.70;99.90
7206;DHT22;3644;53.480;10.004;2024-01-30T06:30:07;5.70;99.90
7206;DHT22;3644;53.480;10.004;2024-01-30T06:32:32;5.70;99.90
7206;DHT22;3644;53.480;10.004;2024-01-30T06:35:00;5.80;99.90
7206;DHT22;3644;53.480;10.004;2024-01-30T06:37:25;5.70;99.90
7206;DHT22;3644;53.480;10.004;2024-01-30T06:39:51;5.70;99.90
7206;DHT22;3644;53.480;10.004;2024-01-30T06:42:18;5.80;99.90
7206;DHT22;3644;53.480;10.004;2024-01-30T06:44:43;5.90;99.90
7206;DHT22;3644;53.480;10.004;2024-01-30T06:47:09;5.90;99.90
7206;DHT22;3644;53.480;10.004;2024-01-30T06:49:35;5.90;99.90
7206;DHT22;3644;53.480;10.004;2024-01-30T06:52:06;5.90;99.90
7206;DHT22;3644;53.480;10.004;2024-01-30T06:54:32;6.00;99.90
7206;DHT22;3644;53.480;10.004;2024-01-30T06:56:58;5.90;99.90
7206;DHT22;3644;53.480;10.004;2024-01-30T06:59:24;6.00;99.90
7206;DHT22;3644;53.480;10.004;2024-01-30T07:01:49;6.00;99.90
7206;DHT22;3644;53.480;10.004;2024-01-30T07:04:15;6.10;99.90
7206;DHT22;3644;53.480;10.004;2024-01-30T07:06:41;6.20;99.90
7206;DHT22;3644;53.480;10.004;2024-01-30T07:09:07;6.20;99.90
7206;DHT22;3644;53.480;10.004;2024-01-30T07:11:33;6.10;99.90
7206;DHT22;3644;53.480;10.004;2024-01-30T07:13:59;5.90;99.90
7206;DHT22;3644;53.480;10.004;2024-01-30T07:16:25;6.00;99.90
7206;DHT22;3644;53.480;10.004;2024-01-30T07:18:50;6.20;99.90
7206;DHT22;3644;53.480;10.004;2024-01-30T07:21:16;6.10;99.90
7206;DHT22;3644;53.480;10.004;2024-01-30T07:23:42;6.10;99.90
7206;DHT22;3644;53.480;10.004;2024-01-30T07:26:08;6.10;99.90
7206;DHT22;3644;53.480;10.004;2024-01-30T07:28:34;6.20;99.90
7206;DHT22;3644;53.480;10.004;2024-01-30T07:31:00;6.20;99.90
7206;DHT22;3644;53.480;10.004;2024-01-30T07:33:26;6.30;99.90
7206;DHT22;3644;53.480;10.004;2024-01-30T07:35:53;6.20;99.90
7206;DHT22;3644;53.480;10.004;2024-01-30T07:38:19;6.20;99.90
7206;DHT22;3644;53.480;10.004;2024-01-30T07:40:44;6.10;99.90
7206;DHT22;3644;53.480;10.004;2024-01-30T07:43:10;6.20;99.90
7206;DHT22;3644;53.480;10.004;2024-01-30T07:45:36;6.50;99.90
7206;DHT22;3644;53.480;10.004;2024-01-30T07:48:03;6.80;99.90
7206;DHT22;3644;53.480;10.004;2024-01-30T07:50:28;7.10;99.90
7206;DHT22;3644;53.480;10.004;2024-01-30T07:52:55;7.30;99.90
7206;DHT22;3644;53.480;10.004;2024-01-30T07:55:22;7.50;99.90
7206;DHT22;3644;53.480;10.004;2024-01-30T07:57:51;7.60;99.90
7206;DHT22;3644;53.480;10.004;2024-01-30T08:00:18;7.50;99.90
7206;DHT22;3644;53.480;10.004;2024-01-30T08:02:44;7.50;99.90
7206;DHT22;3644;53.480;10.004;2024-01-30T08:05:10;7.40;99.90
7206;DHT22;3644;53.480;10.004;2024-01-30T08:07:36;7.30;99.90
7206;DHT22;3644;53.480;10.004;2024-01-30T08:10:02;7.40;99.90
7206;DHT22;3644;53.480;10.004;2024-01-30T08:12:28;7.30;99.90
7206;DHT22;3644;53.480;10.004;2024-01-30T08:14:53;7.20;99.90
7206;DHT22;3644;53.480;10.004;2024-01-30T08:17:19;7.20;99.90
7206;DHT22;3644;53.480;10.004;2024-01-30T08:19:44;7.30;99.90
7206;DHT22;3644;53.480;10.004;2024-01-30T08:22:09;7.30;99.90
7206;DHT22;3644;53.480;10.004;2024-01-30T08:24:35;7.30;99.90
7206;DHT22;3644;53.480;10.004;2024-01-30T08:27:00;7.30;99.90
7206;DHT22;3644;53.480;10.004;2024-01-30T08:29:27;7.30;99.90
7206;DHT22;3644;53.480;10.004;2024-01-30T08:31:53;7.30;99.90
7206;DHT22;3644;53.480;10.004;2024-01-30T08:34:21;7.40;99.90
7206;DHT22;3644;53.480;10.004;2024-01-30T08:36:46;7.50;99.90
7206;DHT22;3644;53.480;10.004;2024-01-30T08:39:12;7.50;99.90
7206;DHT22;3644;53.480;10.004;2024-01-30T08:41:37;7.60;99.90
7206;DHT22;3644;53.480;10.004;2024-01-30T08:44:03;7.60;99.90
7206;DHT22;3644;53.480;10.004;2024-01-30T08:46:29;7.70;99.90
7206;DHT22;3644;53.480;10.004;2024-01-30T08:48:56;7.70;99.90
7206;DHT22;3644;53.480;10.004;2024-01-30T08:51:21;7.70;99.90
7206;DHT22;3644;53.480;10.004;2024-01-30T08:53:47;7.90;99.90
7206;DHT22;3644;53.480;10.004;2024-01-30T08:56:12;7.80;99.90
7206;DHT22;3644;53.480;10.004;2024-01-30T08:58:39;7.90;99.90
7206;DHT22;3644;53.480;10.004;2024-01-30T09:01:05;7.90;99.90
7206;DHT22;3644;53.480;10.004;2024-01-30T09:03:31;7.90;99.90
7206;DHT22;3644;53.480;10.004;2024-01-30T09:05:56;7.80;99.90
7206;DHT22;3644;53.480;10.004;2024-01-30T09:08:22;7.90;99.90
7206;DHT22;3644;53.480;10.004;2024-01-30T09:10:48;8.00;99.90
7206;DHT22;3644;53.480;10.004;2024-01-30T09:13:15;8.10;99.90
7206;DHT22;3644;53.480;10.004;2024-01-30T09:15:41;8.00;99.90
7206;DHT22;3644;53.480;10.004;2024-01-30T09:18:07;8.00;99.90
7206;DHT22;3644;53.480;10.004;2024-01-30T09:20:32;8.10;99.90
7206;DHT22;3644;53.480;10.004;2024-01-30T09:22:58;8.20;99.90
7206;DHT22;3644;53.480;10.004;2024-01-30T09:25:23;8.20;99.90
7206;DHT22;3644;53.480;10.004;2024-01-30T09:27:48;8.20;99.90
7206;DHT22;3644;53.480;10.004;2024-01-30T09:30:14;8.30;99.90
7206;DHT22;3644;53.480;10.004;2024-01-30T09:32:40;8.30;99.90
7206;DHT22;3644;53.480;10.004;2024-01-30T09:35:06;8.40;99.90
7206;DHT22;3644;53.480;10.004;2024-01-30T09:37:31;8.50;99.90
7206;DHT22;3644;53.480;10.004;2024-01-30T09:39:57;8.60;99.90
7206;DHT22;3644;53.480;10.004;2024-01-30T09:44:54;8.70;99.90
7206;DHT22;3644;53.480;10.004;2024-01-30T09:47:20;8.70;99.90
7206;DHT22;3644;53.480;10.004;2024-01-30T09:49:46;8.70;99.90
7206;DHT22;3644;53.480;10.004;2024-01-30T09:52:11;8.70;99.90
7206;DHT22;3644;53.480;10.004;2024-01-30T09:54:38;8.80;99.90
7206;DHT22;3644;53.480;10.004;2024-01-30T09:57:04;8.90;99.90
7206;DHT22;3644;53.480;10.004;2024-01-30T09:59:30;9.00;99.90
7206;DHT22;3644;53.480;10.004;2024-01-30T10:01:57;9.00;99.90
7206;DHT22;3644;53.480;10.004;2024-01-30T10:04:22;8.90;99.90
7206;DHT22;3644;53.480;10.004;2024-01-30T10:06:48;9.00;99.90
7206;DHT22;3644;53.480;10.004;2024-01-30T10:09:13;9.10;99.90
7206;DHT22;3644;53.480;10.004;2024-01-30T10:11:39;9.10;99.90
7206;DHT22;3644;53.480;10.004;2024-01-30T10:14:04;9.20;99.90
7206;DHT22;3644;53.480;10.004;2024-01-30T10:16:30;9.20;99.90
7206;DHT22;3644;53.480;10.004;2024-01-30T10:18:56;9.20;99.90
7206;DHT22;3644;53.480;10.004;2024-01-30T10:21:22;9.20;99.90
7206;DHT22;3644;53.480;10.004;2024-01-30T10:23:47;9.30;99.90
7206;DHT22;3644;53.480;10.004;2024-01-30T10:26:13;9.40;99.90
7206;DHT22;3644;53.480;10.004;2024-01-30T10:28:39;9.40;99.90
7206;DHT22;3644;53.480;10.004;2024-01-30T10:31:04;9.60;99.90
7206;DHT22;3644;53.480;10.004;2024-01-30T10:33:30;9.60;99.90
7206;DHT22;3644;53.480;10.004;2024-01-30T10:36:02;9.60;99.90
7206;DHT22;3644;53.480;10.004;2024-01-30T10:38:29;9.70;99.90
7206;DHT22;3644;53.480;10.004;2024-01-30T10:40:59;9.80;99.90
7206;DHT22;3644;53.480;10.004;2024-01-30T10:43:33;9.90;99.90
7206;DHT22;3644;53.480;10.004;2024-01-30T10:46:19;9.80;99.90
7206;DHT22;3644;53.480;10.004;2024-01-30T10:48:51;9.90;99.90
7206;DHT22;3644;53.480;10.004;2024-01-30T10:51:22;10.00;99.90
7206;DHT22;3644;53.480;10.004;2024-01-30T10:53:48;10.00;99.90
7206;DHT22;3644;53.480;10.004;2024-01-30T10:56:16;10.10;99.90
7206;DHT22;3644;53.480;10.004;2024-01-30T10:58:42;10.20;99.90
7206;DHT22;3644;53.480;10.004;2024-01-30T11:01:07;10.30;99.90
7206;DHT22;3644;53.480;10.004;2024-01-30T11:03:34;10.20;99.90
7206;DHT22;3644;53.480;10.004;2024-01-30T11:06:02;10.30;99.90
7206;DHT22;3644;53.480;10.004;2024-01-30T11:08:28;10.30;99.90
7206;DHT22;3644;53.480;10.004;2024-01-30T11:10:57;10.30;99.90
7206;DHT22;3644;53.480;10.004;2024-01-30T11:13:27;10.50;99.90
7206;DHT22;3644;53.480;10.004;2024-01-30T11:15:54;10.50;99.90
7206;DHT22;3644;53.480;10.004;2024-01-30T11:18:26;10.60;99.90
7206;DHT22;3644;53.480;10.004;2024-01-30T11:20:56;10.70;99.90
7206;DHT22;3644;53.480;10.004;2024-01-30T11:23:22;10.70;99.90
7206;DHT22;3644;53.480;10.004;2024-01-30T11:25:48;10.70;99.90
7206;DHT22;3644;53.480;10.004;2024-01-30T11:28:16;10.80;99.90
7206;DHT22;3644;53.480;10.004;2024-01-30T11:30:42;10.80;99.90
7206;DHT22;3644;53.480;10.004;2024-01-30T11:33:14;10.90;99.90
7206;DHT22;3644;53.480;10.004;2024-01-30T11:35:40;10.90;99.90
7206;DHT22;3644;53.480;10.004;2024-01-30T11:38:07;11.00;99.90
7206;DHT22;3644;53.480;10.004;2024-01-30T11:40:34;11.10;99.90
7206;DHT22;3644;53.480;10.004;2024-01-30T11:43:01;11.10;99.90
7206;DHT22;3644;53.480;10.004;2024-01-30T11:45:28;11.00;99.90
7206;DHT22;3644;53.480;10.004;2024-01-30T11:47:54;11.20;99.90
7206;DHT22;3644;53.480;10.004;2024-01-30T11:50:20;11.20;99.90
7206;DHT22;3644;53.480;10.004;2024-01-30T11:52:45;11.20;99.90
7206;DHT22;3644;53.480;10.004;2024-01-30T11:55:12;11.30;99.90
7206;DHT22;3644;53.480;10.004;2024-01-30T11:57:38;11.40;99.90
7206;DHT22;3644;53.480;10.004;2024-01-30T12:00:04;11.40;99.90
7206;DHT22;3644;53.480;10.004;2024-01-30T12:02:39;11.40;99.90
7206;DHT22;3644;53.480;10.004;2024-01-30T12:05:06;11.50;99.90
7206;DHT22;3644;53.480;10.004;2024-01-30T12:07:32;11.50;99.90
7206;DHT22;3644;53.480;10.004;2024-01-30T12:09:58;11.60;99.90
7206;DHT22;3644;53.480;10.004;2024-01-30T12:12:25;11.60;99.90
7206;DHT22;3644;53.480;10.004;2024-01-30T12:14:51;11.80;99.90
7206;DHT22;3644;53.480;10.004;2024-01-30T12:17:29;11.80;99.90
7206;DHT22;3644;53.480;10.004;2024-01-30T12:20:06;11.80;99.90
7206;DHT22;3644;53.480;10.004;2024-01-30T12:22:36;11.90;99.90
7206;DHT22;3644;53.480;10.004;2024-01-30T12:25:04;11.90;99.90
7206;DHT22;3644;53.480;10.004;2024-01-30T12:27:30;12.00;99.90
7206;DHT22;3644;53.480;10.004;2024-01-30T12:29:59;12.00;99.90
7206;DHT22;3644;53.480;10.004;2024-01-30T12:32:24;12.00;99.90
7206;DHT22;3644;53.480;10.004;2024-01-30T12:34:50;12.10;99.90
7206;DHT22;3644;53.480;10.004;2024-01-30T12:37:16;12.10;99.90
7206;DHT22;3644;53.480;10.004;2024-01-30T12:39:48;12.20;99.90
7206;DHT22;3644;53.480;10.004;2024-01-30T12:42:14;12.30;99.90
7206;DHT22;3644;53.480;10.004;2024-01-30T12:44:39;12.40;99.90
7206;DHT22;3644;53.480;10.004;2024-01-30T12:47:05;12.30;99.90
7206;DHT22;3644;53.480;10.004;2024-01-30T12:49:31;12.40;99.90
7206;DHT22;3644;53.480;10.004;2024-01-30T12:51:56;12.50;99.90
7206;DHT22;3644;53.480;10.004;2024-01-30T12:54:23;12.50;99.90
7206;DHT22;3644;53.480;10.004;2024-01-30T12:56:49;12.50;99.90
7206;DHT22;3644;53.480;10.004;2024-01-30T12:59:14;12.50;99.90
7206;DHT22;3644;53.480;10.004;2024-01-30T13:01:40;12.50;99.90
7206;DHT22;3644;53.480;10.004;2024-01-30T13:04:05;12.40;99.90
7206;DHT22;3644;53.480;10.004;2024-01-30T13:06:30;12.50;99.90
7206;DHT22;3644;53.480;10.004;2024-01-30T13:08:56;12.40;99.90
7206;DHT22;3644;53.480;10.004;2024-01-30T13:11:21;12.50;99.90
7206;DHT22;3644;53.480;10.004;2024-01-30T13:13:47;12.40;99.90
7206;DHT22;3644;53.480;10.004;2024-01-30T13:16:13;12.40;99.90
7206;DHT22;3644;53.480;10.004;2024-01-30T13:18:38;12.40;99.90
7206;DHT22;3644;53.480;10.004;2024-01-30T13:21:04;12.40;99.90
7206;DHT22;3644;53.480;10.004;2024-01-30T13:23:29;12.50;99.90
7206;DHT22;3644;53.480;10.004;2024-01-30T13:25:55;12.40;99.90
7206;DHT22;3644;53.480;10.004;2024-01-30T13:28:23;12.50;99.90
7206;DHT22;3644;53.480;10.004;2024-01-30T13:30:49;12.50;99.90
7206;DHT22;3644;53.480;10.004;2024-01-30T13:33:14;12.60;99.90
7206;DHT22;3644;53.480;10.004;2024-01-30T13:35:40;12.60;99.90
7206;DHT22;3644;53.480;10.004;2024-01-30T13:38:05;12.70;99.90
7206;DHT22;3644;53.480;10.004;2024-01-30T13:40:30;12.60;99.90
7206;DHT22;3644;53.480;10.004;2024-01-30T13:42:56;12.70;99.90
7206;DHT22;3644;53.480;10.004;2024-01-30T13:45:21;12.70;99.90
7206;DHT22;3644;53.480;10.004;2024-01-30T13:47:47;12.70;99.90
7206;DHT22;3644;53.480;10.004;2024-01-30T13:50:12;12.70;99.90
7206;DHT22;3644;53.480;10.004;2024-01-30T13:52:41;12.80;99.90
7206;DHT22;3644;53.480;10.004;2024-01-30T13:55:06;12.80;99.90
7206;DHT22;3644;53.480;10.004;2024-01-30T13:57:32;12.70;99.90
7206;DHT22;3644;53.480;10.004;2024-01-30T14:00:01;12.70;99.90
7206;DHT22;3644;53.480;10.004;2024-01-30T14:02:27;12.80;99.90
7206;DHT22;3644;53.480;10.004;2024-01-30T14:04:52;12.80;99.90
7206;DHT22;3644;53.480;10.004;2024-01-30T14:07:18;12.80;99.90
7206;DHT22;3644;53.480;10.004;2024-01-30T14:09:44;12.70;99.90
7206;DHT22;3644;53.480;10.004;2024-01-30T14:12:09;12.70;99.90
7206;DHT22;3644;53.480;10.004;2024-01-30T14:14:35;12.70;99.90
7206;DHT22;3644;53.480;10.004;2024-01-30T14:17:00;12.70;99.90
7206;DHT22;3644;53.480;10.004;2024-01-30T14:19:26;12.70;99.90
7206;DHT22;3644;53.480;10.004;2024-01-30T14:21:52;12.80;99.90
7206;DHT22;3644;53.480;10.004;2024-01-30T14:24:18;12.60;99.90
7206;DHT22;3644;53.480;10.004;2024-01-30T14:26:43;12.60;99.90
7206;DHT22;3644;53.480;10.004;2024-01-30T14:29:09;12.70;99.90
7206;DHT22;3644;53.480;10.004;2024-01-30T14:31:35;12.80;99.90
7206;DHT22;3644;53.480;10.004;2024-01-30T14:34:00;12.80;99.90
7206;DHT22;3644;53.480;10.004;2024-01-30T14:36:26;12.80;99.90
7206;DHT22;3644;53.480;10.004;2024-01-30T14:38:54;12.90;99.90
7206;DHT22;3644;53.480;10.004;2024-01-30T14:41:20;13.00;99.90
7206;DHT22;3644;53.480;10.004;2024-01-30T14:43:45;12.90;99.90
7206;DHT22;3644;53.480;10.004;2024-01-30T14:46:11;12.80;99.90
7206;DHT22;3644;53.480;10.004;2024-01-30T14:48:36;12.60;99.90
7206;DHT22;3644;53.480;10.004;2024-01-30T14:51:02;12.60;99.90
7206;DHT22;3644;53.480;10.004;2024-01-30T14:53:28;12.70;99.90
7206;DHT22;3644;53.480;10.004;2024-01-30T14:55:53;12.70;99.90
7206;DHT22;3644;53.480;10.004;2024-01-30T14:58:19;12.70;99.90
7206;DHT22;3644;53.480;10.004;2024-01-30T15:00:44;12.70;99.90
7206;DHT22;3644;53.480;10.004;2024-01-30T15:03:10;12.70;99.90
7206;DHT22;3644;53.480;10.004;2024-01-30T15:05:35;12.70;99.90
7206;DHT22;3644;53.480;10.004;2024-01-30T15:08:01;12.80;99.90
7206;DHT22;3644;53.480;10.004;2024-01-30T15:10:27;12.70;99.90
7206;DHT22;3644;53.480;10.004;2024-01-30T15:12:52;12.70;99.90
7206;DHT22;3644;53.480;10.004;2024-01-30T15:15:18;12.90;99.90
7206;DHT22;3644;53.480;10.004;2024-01-30T15:17:43;12.80;99.90
7206;DHT22;3644;53.480;10.004;2024-01-30T15:20:09;12.80;99.90
7206;DHT22;3644;53.480;10.004;2024-01-30T15:22:35;12.80;99.90
7206;DHT22;3644;53.480;10.004;2024-01-30T15:25:00;12.90;99.90
7206;DHT22;3644;53.480;10.004;2024-01-30T15:27:26;12.80;99.90
7206;DHT22;3644;53.480;10.004;2024-01-30T15:29:51;12.90;99.90
7206;DHT22;3644;53.480;10.004;2024-01-30T15:32:17;13.10;99.90
7206;DHT22;3644;53.480;10.004;2024-01-30T15:34:42;13.00;99.90
7206;DHT22;3644;53.480;10.004;2024-01-30T15:37:08;12.90;99.90
7206;DHT22;3644;53.480;10.004;2024-01-30T15:39:34;12.80;99.90
7206;DHT22;3644;53.480;10.004;2024-01-30T15:41:59;12.80;99.90
7206;DHT22;3644;53.480;10.004;2024-01-30T15:44:25;12.80;99.90
7206;DHT22;3644;53.480;10.004;2024-01-30T15:46:50;12.90;99.90
7206;DHT22;3644;53.480;10.004;2024-01-30T15:49:16;12.80;99.90
7206;DHT22;3644;53.480;10.004;2024-01-30T15:51:42;12.70;99.90